Time;durP1;ratioP1;P1;durP2;ratioP2;P2;SDS_P1;SDS_P2;PMS_P1;PMS_P2;Temp;Humidity;BMP_temperature;BMP_pressure;BME280_temperature;BME280_humidity;BME280_pressure;Samples;Min_cycle;Max_cycle;Signal;HPM_P1;HPM_P2
2023/05/21 00:01:24;;;;;;;16.33;14.80;;;17.80;99.90;;;;;;6148722;23;20540;-76
2023/05/21 00:03:51;;;;;;;17.07;15.70;;;17.80;99.90;;;;;;6124840;23;20456;-76
2023/05/21 00:06:19;;;;;;;17.90;16.27;;;17.80;99.90;;;;;;6147422;23;20437;-76
2023/05/21 00:08:46;;;;;;;17.67;16.07;;;18.00;99.90;;;;;;6150886;23;20420;-76
2023/05/21 00:11:15;;;;;;;17.80;16.30;;;17.80;99.90;;;;;;6149873;23;20428;-76
2023/05/21 00:13:42;;;;;;;17.10;15.80;;;17.80;99.90;;;;;;6147433;23;20475;-76
2023/05/21 00:16:09;;;;;;;17.10;15.70;;;17.80;99.90;;;;;;6142694;23;20943;-76
2023/05/21 00:18:38;;;;;;;18.00;16.60;;;17.70;99.90;;;;;;6147128;23;20440;-76
2023/05/21 00:21:05;;;;;;;16.63;15.33;;;17.70;99.90;;;;;;6136251;23;20916;-76
2023/05/21 00:23:33;;;;;;;17.03;15.60;;;18.00;99.90;;;;;;6147576;23;20437;-76
2023/05/21 00:26:00;;;;;;;17.47;16.03;;;17.90;99.90;;;;;;6149124;23;20923;-76
2023/05/21 00:28:28;;;;;;;17.50;16.00;;;17.70;99.90;;;;;;6147429;23;20440;-76
2023/05/21 00:30:55;;;;;;;18.03;16.63;;;17.60;99.90;;;;;;6146409;23;20441;-76
2023/05/21 00:33:25;;;;;;;17.20;15.70;;;17.60;99.90;;;;;;6145232;23;20509;-76
2023/05/21 00:35:52;;;;;;;16.63;15.33;;;17.60;99.90;;;;;;6148184;23;20444;-76
2023/05/21 00:38:20;;;;;;;18.63;17.23;;;17.60;99.90;;;;;;6129746;23;20467;-76
2023/05/21 00:40:48;;;;;;;18.03;16.53;;;17.60;99.90;;;;;;6144313;23;20867;-76
2023/05/21 00:43:15;;;;;;;17.83;16.33;;;17.50;99.90;;;;;;6148221;23;20448;-76
2023/05/21 00:45:45;;;;;;;18.30;16.73;;;17.70;99.90;;;;;;6147396;23;20528;-76
2023/05/21 00:48:13;;;;;;;18.37;16.87;;;17.50;99.90;;;;;;6136400;23;20448;-76
2023/05/21 00:50:41;;;;;;;20.10;18.40;;;17.40;99.90;;;;;;6144099;23;20433;-76
2023/05/21 00:53:09;;;;;;;17.63;16.20;;;17.40;99.90;;;;;;6147529;23;20585;-76
2023/05/21 00:55:36;;;;;;;18.87;17.27;;;17.30;99.90;;;;;;6132011;23;21122;-76
2023/05/21 00:58:03;;;;;;;19.07;17.50;;;17.30;99.90;;;;;;6148141;23;20519;-76
2023/05/21 01:00:33;;;;;;;18.73;17.23;;;17.20;99.90;;;;;;6147115;23;20437;-76
2023/05/21 01:03:01;;;;;;;18.83;17.23;;;17.20;99.90;;;;;;6147696;23;20575;-76
2023/05/21 01:05:29;;;;;;;19.57;17.97;;;17.10;99.90;;;;;;6147373;23;20432;-76
2023/05/21 01:07:58;;;;;;;19.93;18.23;;;17.10;99.90;;;;;;6145454;23;20441;-76
2023/05/21 01:10:27;;;;;;;18.73;17.20;;;17.00;99.90;;;;;;6134729;23;20463;-76
2023/05/21 01:12:56;;;;;;;19.07;17.57;;;17.30;99.90;;;;;;6137055;23;20464;-76
2023/05/21 01:15:23;;;;;;;20.77;18.97;;;17.00;99.90;;;;;;6144790;23;20499;-76
2023/05/21 01:17:51;;;;;;;19.73;18.13;;;16.90;99.90;;;;;;6146548;23;20479;-76
2023/05/21 01:20:20;;;;;;;20.80;19.10;;;17.10;99.90;;;;;;6147965;23;20539;-76
2023/05/21 01:22:52;;;;;;;18.30;16.80;;;16.80;99.90;;;;;;6146561;23;20563;-76
2023/05/21 01:25:19;;;;;;;20.60;18.80;;;16.80;99.90;;;;;;6147363;23;20444;-76
2023/05/21 01:27:47;;;;;;;19.90;18.17;;;16.80;99.90;;;;;;6129553;23;20495;-76
2023/05/21 01:30:15;;;;;;;20.70;19.00;;;16.80;99.90;;;;;;6137349;23;20429;-76
2023/05/21 01:32:48;;;;;;;20.47;18.77;;;16.80;99.90;;;;;;6136628;23;20556;-76
2023/05/21 01:35:21;;;;;;;19.83;18.20;;;16.80;99.90;;;;;;6144263;23;20959;-76
2023/05/21 01:37:55;;;;;;;19.73;18.00;;;16.70;99.90;;;;;;6147700;23;20490;-76
2023/05/21 01:40:29;;;;;;;21.57;19.67;;;16.70;99.90;;;;;;6147937;23;20488;-76
2023/05/21 01:42:57;;;;;;;19.67;17.97;;;16.70;99.90;;;;;;6148944;23;20453;-76
2023/05/21 01:45:25;;;;;;;19.37;17.77;;;16.70;99.90;;;;;;6137036;23;20943;-75
2023/05/21 01:47:55;;;;;;;20.97;19.17;;;16.70;99.90;;;;;;6145734;23;20421;-76
2023/05/21 01:50:23;;;;;;;19.70;18.10;;;16.70;99.90;;;;;;6144571;23;20989;-76
2023/05/21 01:52:55;;;;;;;19.90;18.10;;;16.70;99.90;;;;;;6148486;23;20559;-76
2023/05/21 01:55:24;;;;;;;19.50;17.90;;;17.00;99.90;;;;;;6139481;23;20442;-76
2023/05/21 01:57:52;;;;;;;20.30;18.60;;;16.60;99.90;;;;;;6141648;23;20443;-76
2023/05/21 02:00:20;;;;;;;20.10;18.50;;;16.70;99.90;;;;;;6145418;23;20519;-76
2023/05/21 02:02:47;;;;;;;20.33;18.60;;;16.60;99.90;;;;;;6140053;23;20500;-76
2023/05/21 02:05:14;;;;;;;20.43;18.63;;;16.90;99.90;;;;;;6134814;23;20499;-76
2023/05/21 02:07:42;;;;;;;20.47;18.73;;;16.60;99.90;;;;;;6149313;23;20448;-76
2023/05/21 02:10:11;;;;;;;21.23;19.47;;;16.60;99.90;;;;;;6146564;23;20447;-76
2023/05/21 02:12:39;;;;;;;21.17;19.27;;;16.50;99.90;;;;;;6146655;23;20496;-76
2023/05/21 02:15:07;;;;;;;19.97;17.97;;;16.50;99.90;;;;;;6146920;23;20784;-76
2023/05/21 02:17:34;;;;;;;20.60;18.90;;;16.50;99.90;;;;;;6147010;23;20459;-76
2023/05/21 02:20:10;;;;;;;20.63;18.93;;;16.50;99.90;;;;;;6139952;23;20524;-76
2023/05/21 02:22:37;;;;;;;19.87;18.17;;;16.50;99.90;;;;;;6144672;23;20689;-76
2023/05/21 02:25:07;;;;;;;20.80;18.83;;;16.50;99.90;;;;;;6145614;23;20435;-76
2023/05/21 02:27:36;;;;;;;20.60;18.80;;;16.50;99.90;;;;;;6147646;23;20425;-75
2023/05/21 02:30:04;;;;;;;20.27;18.57;;;16.40;99.90;;;;;;6144422;23;20450;-76
2023/05/21 02:32:31;;;;;;;20.60;18.87;;;16.40;99.90;;;;;;6146505;23;20475;-76
2023/05/21 02:34:58;;;;;;;21.70;20.00;;;16.50;99.90;;;;;;6146718;23;20444;-76
2023/05/21 02:37:27;;;;;;;20.83;19.13;;;16.30;99.90;;;;;;6139379;23;20456;-76
2023/05/21 02:39:54;;;;;;;21.03;19.13;;;16.30;99.90;;;;;;6142994;23;20440;-75
2023/05/21 02:42:22;;;;;;;21.80;19.90;;;16.30;99.90;;;;;;6148160;23;20463;-75
2023/05/21 02:44:51;;;;;;;21.67;19.90;;;16.30;99.90;;;;;;6148207;23;20432;-76
2023/05/21 02:47:19;;;;;;;22.10;20.30;;;16.20;99.90;;;;;;6139738;23;20552;-76
2023/05/21 02:49:47;;;;;;;20.70;19.00;;;16.20;99.90;;;;;;6137716;23;20800;-76
2023/05/21 02:52:14;;;;;;;21.00;19.30;;;16.20;99.90;;;;;;6149425;23;20452;-76
2023/05/21 02:54:42;;;;;;;20.27;18.43;;;16.20;99.90;;;;;;6148006;23;20519;-76
2023/05/21 02:57:09;;;;;;;20.63;18.93;;;16.20;99.90;;;;;;6148990;23;20434;-76
2023/05/21 02:59:36;;;;;;;21.33;19.63;;;16.10;99.90;;;;;;6146137;23;20436;-76
2023/05/21 03:02:05;;;;;;;21.60;19.70;;;16.10;99.90;;;;;;6147204;23;20461;-76
2023/05/21 03:04:37;;;;;;;20.50;18.80;;;16.10;99.90;;;;;;6139930;23;20515;-76
2023/05/21 03:07:05;;;;;;;21.77;19.97;;;16.10;99.90;;;;;;6147820;23;20931;-75
2023/05/21 03:09:32;;;;;;;22.73;20.73;;;16.00;99.90;;;;;;6139359;23;20935;-75
2023/05/21 03:11:59;;;;;;;21.77;20.00;;;16.00;99.90;;;;;;6147576;23;21106;-75
2023/05/21 03:14:27;;;;;;;22.50;20.50;;;16.00;99.90;;;;;;6150235;23;20551;-76
2023/05/21 03:16:54;;;;;;;21.20;19.40;;;16.00;99.90;;;;;;6148172;23;20997;-76
2023/05/21 03:19:23;;;;;;;21.90;20.00;;;15.90;99.90;;;;;;6147406;23;20433;-76
2023/05/21 03:21:51;;;;;;;21.87;19.90;;;15.90;99.90;;;;;;6149779;23;20507;-76
2023/05/21 03:24:18;;;;;;;22.57;20.67;;;15.90;99.90;;;;;;6145190;23;21064;-76
2023/05/21 03:26:46;;;;;;;23.00;21.10;;;15.90;99.90;;;;;;6139739;23;20433;-76
2023/05/21 03:29:14;;;;;;;21.67;19.87;;;15.90;99.90;;;;;;6148318;23;20939;-76
2023/05/21 03:31:41;;;;;;;20.90;19.10;;;15.90;99.90;;;;;;6150104;23;20536;-75
2023/05/21 03:34:08;;;;;;;20.37;18.70;;;15.80;99.90;;;;;;6149143;23;20543;-76
2023/05/21 03:36:36;;;;;;;22.80;20.87;;;15.80;99.90;;;;;;6146965;23;20525;-76
2023/05/21 03:39:04;;;;;;;21.50;19.70;;;15.80;99.90;;;;;;6149747;23;20950;-76
2023/05/21 03:41:31;;;;;;;21.93;19.80;;;15.80;99.90;;;;;;6147167;23;20453;-75
2023/05/21 03:43:58;;;;;;;21.70;19.90;;;15.80;99.90;;;;;;6138070;23;20442;-76
2023/05/21 03:46:26;;;;;;;21.67;19.87;;;15.80;99.90;;;;;;6143359;23;20512;-76
2023/05/21 03:48:53;;;;;;;21.20;19.40;;;15.70;99.90;;;;;;6146828;23;20436;-76
2023/05/21 03:51:21;;;;;;;22.40;20.60;;;15.70;99.90;;;;;;6146154;23;20517;-76
2023/05/21 03:53:49;;;;;;;21.10;19.40;;;15.70;99.90;;;;;;6147824;23;20539;-76
2023/05/21 03:56:16;;;;;;;21.13;19.40;;;15.70;99.90;;;;;;6148877;23;20431;-76
2023/05/21 03:58:44;;;;;;;22.00;20.00;;;15.70;99.90;;;;;;6146749;23;20441;-75
2023/05/21 04:01:12;;;;;;;22.47;20.37;;;15.70;99.90;;;;;;6130565;23;20809;-76
2023/05/21 04:03:38;;;;;;;21.57;19.77;;;15.70;99.90;;;;;;6148208;23;20492;-76
2023/05/21 04:06:08;;;;;;;20.77;18.90;;;15.70;99.90;;;;;;6148451;23;20542;-76
2023/05/21 04:08:36;;;;;;;21.57;19.67;;;15.70;99.90;;;;;;6147646;23;20417;-76
2023/05/21 04:11:05;;;;;;;21.23;19.47;;;15.70;99.90;;;;;;6142203;23;20469;-76
2023/05/21 04:13:32;;;;;;;20.57;18.73;;;15.70;99.90;;;;;;6150061;23;20537;-76
2023/05/21 04:15:59;;;;;;;20.40;18.70;;;15.80;99.90;;;;;;6139178;23;20885;-75
2023/05/21 04:18:26;;;;;;;21.33;19.43;;;15.80;99.90;;;;;;6138494;23;20435;-76
2023/05/21 04:20:53;;;;;;;20.83;19.03;;;15.80;99.90;;;;;;6148294;23;20522;-76
2023/05/21 04:23:22;;;;;;;21.00;19.20;;;15.80;99.90;;;;;;6141468;23;20437;-76
2023/05/21 04:25:49;;;;;;;21.57;19.60;;;15.80;99.90;;;;;;6139861;23;20478;-76
2023/05/21 04:28:18;;;;;;;20.47;18.73;;;15.80;99.90;;;;;;6148563;23;20468;-75
2023/05/21 04:30:46;;;;;;;21.27;19.37;;;15.80;99.90;;;;;;6146603;23;20437;-76
2023/05/21 04:33:16;;;;;;;20.37;18.30;;;15.90;99.90;;;;;;6135240;23;20979;-76
2023/05/21 04:35:45;;;;;;;20.60;18.90;;;15.90;99.90;;;;;;6147315;23;20506;-76
2023/05/21 04:38:12;;;;;;;21.57;19.73;;;15.90;99.90;;;;;;6149804;23;20431;-76
2023/05/21 04:40:39;;;;;;;20.70;18.90;;;15.90;99.90;;;;;;6147445;23;20452;-75
2023/05/21 04:43:07;;;;;;;21.80;19.90;;;15.90;99.90;;;;;;6138904;23;20441;-76
2023/05/21 04:45:37;;;;;;;20.53;18.83;;;15.90;99.90;;;;;;6144682;23;20432;-76
2023/05/21 04:48:04;;;;;;;21.53;19.57;;;15.90;99.90;;;;;;6147588;23;20436;-76
2023/05/21 04:50:32;;;;;;;19.80;18.10;;;15.90;99.90;;;;;;6147055;23;20437;-76
2023/05/21 04:52:59;;;;;;;20.33;18.63;;;16.00;99.90;;;;;;6142326;23;20442;-76
2023/05/21 04:55:26;;;;;;;21.00;19.20;;;16.00;99.90;;;;;;6145955;23;20559;-76
2023/05/21 04:57:53;;;;;;;20.60;18.73;;;16.00;99.90;;;;;;6139449;23;20870;-77
2023/05/21 05:00:24;;;;;;;19.73;18.03;;;16.00;99.90;;;;;;6137369;23;20504;-77
2023/05/21 05:02:53;;;;;;;19.57;17.93;;;16.10;99.90;;;;;;6142260;23;20490;-77
2023/05/21 05:05:20;;;;;;;20.97;19.03;;;16.10;99.90;;;;;;6146080;23;20448;-76
2023/05/21 05:07:47;;;;;;;20.23;18.60;;;16.10;99.90;;;;;;6144560;23;20482;-80
2023/05/21 05:10:13;;;;;;;20.43;18.73;;;16.20;99.90;;;;;;6137032;23;20511;-76
2023/05/21 05:12:41;;;;;;;18.93;17.30;;;16.20;99.90;;;;;;6134295;23;20534;-76
2023/05/21 05:15:08;;;;;;;20.50;18.73;;;16.20;99.90;;;;;;6145066;23;20461;-76
2023/05/21 05:17:36;;;;;;;19.00;17.40;;;16.20;99.90;;;;;;6147600;23;20515;-76
2023/05/21 05:20:06;;;;;;;19.83;18.27;;;16.50;99.90;;;;;;6148538;23;21267;-76
2023/05/21 05:22:33;;;;;;;19.97;18.27;;;16.30;99.90;;;;;;6143611;23;20459;-76
2023/05/21 05:25:00;;;;;;;20.73;19.00;;;16.30;99.90;;;;;;6139870;23;20515;-76
2023/05/21 05:27:27;;;;;;;19.57;17.97;;;16.40;99.90;;;;;;6140738;23;20448;-76
2023/05/21 05:29:54;;;;;;;19.23;17.53;;;16.40;99.90;;;;;;6133631;23;21018;-75
2023/05/21 05:32:21;;;;;;;18.37;16.80;;;16.40;99.90;;;;;;6141483;23;20456;-78
2023/05/21 05:34:48;;;;;;;18.40;16.90;;;16.50;99.90;;;;;;6122826;23;20551;-75
2023/05/21 05:37:17;;;;;;;17.20;15.90;;;16.50;99.90;;;;;;6126608;23;20482;-74
2023/05/21 05:39:43;;;;;;;18.57;17.00;;;16.60;99.90;;;;;;6126749;23;20464;-76
2023/05/21 05:42:11;;;;;;;19.90;18.30;;;16.60;99.90;;;;;;6113565;23;20464;-75
2023/05/21 05:44:38;;;;;;;19.73;18.03;;;16.70;99.90;;;;;;6117668;23;20484;-74
2023/05/21 05:47:09;;;;;;;19.27;17.63;;;16.80;99.90;;;;;;6124971;23;20790;-82
2023/05/21 05:49:36;;;;;;;19.20;17.50;;;16.90;99.90;;;;;;6130698;23;20460;-74
2023/05/21 05:52:03;;;;;;;20.23;18.47;;;16.90;99.90;;;;;;6121856;23;20457;-74
2023/05/21 05:54:32;;;;;;;19.53;17.93;;;16.90;99.90;;;;;;6117189;23;20560;-74
2023/05/21 05:56:59;;;;;;;19.07;17.47;;;17.00;99.90;;;;;;6147573;23;20481;-74
2023/05/21 05:59:26;;;;;;;19.20;17.70;;;17.00;99.90;;;;;;6134603;23;20854;-74
2023/05/21 06:01:53;;;;;;;18.93;17.37;;;17.00;99.90;;;;;;6147548;23;20824;-74
2023/05/21 06:04:20;;;;;;;19.40;17.70;;;17.10;99.90;;;;;;6147249;23;20506;-74
2023/05/21 06:06:47;;;;;;;18.80;17.27;;;17.10;99.90;;;;;;6147656;23;20478;-74
2023/05/21 06:09:14;;;;;;;19.20;17.60;;;17.20;99.90;;;;;;6126390;23;20773;-74
2023/05/21 06:11:42;;;;;;;18.80;17.20;;;17.20;99.90;;;;;;6148207;23;20452;-74
2023/05/21 06:14:09;;;;;;;18.60;17.10;;;17.30;99.90;;;;;;6149212;23;21020;-74
2023/05/21 06:16:36;;;;;;;18.40;16.80;;;17.40;99.90;;;;;;6149186;23;20420;-74
2023/05/21 06:19:03;;;;;;;19.73;18.03;;;17.40;99.90;;;;;;6135191;23;20521;-74
2023/05/21 06:21:30;;;;;;;18.37;16.87;;;17.50;99.90;;;;;;6137349;23;20525;-74
2023/05/21 06:23:57;;;;;;;20.03;18.23;;;17.60;99.90;;;;;;6147456;23;20521;-74
2023/05/21 06:26:25;;;;;;;18.10;16.60;;;17.70;99.90;;;;;;6149055;23;20510;-74
2023/05/21 06:28:53;;;;;;;18.60;17.10;;;17.80;99.90;;;;;;6147364;23;20797;-74
2023/05/21 06:31:21;;;;;;;17.60;16.10;;;17.80;99.90;;;;;;6145787;23;20460;-74
2023/05/21 06:33:49;;;;;;;17.43;16.00;;;17.90;99.90;;;;;;6149277;23;20471;-74
2023/05/21 06:36:16;;;;;;;16.50;15.20;;;18.10;99.90;;;;;;6133811;23;20448;-75
2023/05/21 06:38:43;;;;;;;17.50;16.10;;;18.10;99.90;;;;;;6129866;23;20985;-74
2023/05/21 06:41:10;;;;;;;17.40;16.00;;;18.20;99.90;;;;;;6148188;23;20900;-74
2023/05/21 06:43:37;;;;;;;17.63;16.20;;;18.30;99.90;;;;;;6149168;23;20436;-75
2023/05/21 06:46:05;;;;;;;19.57;17.83;;;18.30;99.90;;;;;;6149107;23;20784;-74
2023/05/21 06:48:32;;;;;;;18.53;17.00;;;18.40;99.90;;;;;;6145978;23;20445;-74
2023/05/21 06:50:59;;;;;;;17.80;16.30;;;18.50;99.90;;;;;;6146224;23;21003;-75
2023/05/21 06:53:26;;;;;;;18.47;17.07;;;18.60;99.90;;;;;;6135928;23;20472;-74
2023/05/21 06:55:54;;;;;;;17.43;16.03;;;18.70;99.90;;;;;;6146842;23;20540;-74
2023/05/21 06:58:21;;;;;;;16.67;15.20;;;18.90;99.90;;;;;;6148252;23;20462;-74
2023/05/21 07:00:48;;;;;;;16.93;15.43;;;19.00;99.90;;;;;;6145226;23;20470;-74
2023/05/21 07:03:17;;;;;;;18.00;16.70;;;19.20;99.90;;;;;;6138371;23;20865;-74
2023/05/21 07:05:43;;;;;;;16.70;15.40;;;19.30;99.90;;;;;;6147432;23;20449;-75
2023/05/21 07:08:10;;;;;;;17.90;16.37;;;19.40;99.90;;;;;;6147771;23;20473;-74
2023/05/21 07:10:38;;;;;;;16.00;14.80;;;19.60;99.90;;;;;;6138219;23;20771;-74
2023/05/21 07:13:05;;;;;;;15.63;14.43;;;19.60;99.90;;;;;;6134523;23;20464;-75
2023/05/21 07:15:32;;;;;;;15.37;14.10;;;19.80;99.90;;;;;;6148772;23;20470;-75
2023/05/21 07:17:59;;;;;;;15.60;14.30;;;19.90;99.90;;;;;;6118060;23;20792;-75
2023/05/21 07:20:27;;;;;;;15.53;14.33;;;20.00;99.90;;;;;;6139280;23;20456;-74
2023/05/21 07:22:54;;;;;;;15.27;13.90;;;20.20;99.90;;;;;;6147776;23;20436;-75
2023/05/21 07:25:21;;;;;;;14.77;13.67;;;20.30;99.90;;;;;;6148787;23;20519;-74
2023/05/21 07:27:48;;;;;;;15.37;14.03;;;20.30;99.90;;;;;;6144254;23;20490;-75
2023/05/21 07:30:15;;;;;;;14.30;13.10;;;20.50;99.90;;;;;;6139083;23;20448;-74
2023/05/21 07:32:42;;;;;;;14.83;13.63;;;20.60;99.90;;;;;;6149344;23;20463;-74
2023/05/21 07:35:10;;;;;;;15.10;13.90;;;20.60;99.90;;;;;;6130030;23;20473;-75
2023/05/21 07:37:38;;;;;;;13.67;12.53;;;20.40;99.90;;;;;;6133655;23;20510;-75
2023/05/21 07:40:07;;;;;;;14.50;13.43;;;20.50;99.90;;;;;;6121737;23;20548;-74
2023/05/21 07:42:35;;;;;;;12.23;11.23;;;20.50;99.90;;;;;;6121413;23;20494;-77
2023/05/21 07:45:02;;;;;;;13.00;12.00;;;20.60;99.90;;;;;;6136954;23;20448;-74
2023/05/21 07:47:29;;;;;;;12.67;11.70;;;20.70;99.90;;;;;;6143396;23;20433;-74
2023/05/21 07:49:57;;;;;;;11.33;10.53;;;20.90;99.90;;;;;;6123354;23;20845;-74
2023/05/21 07:52:24;;;;;;;12.27;11.37;;;21.20;99.90;;;;;;6140711;23;20437;-74
2023/05/21 07:54:53;;;;;;;12.50;11.60;;;21.50;99.90;;;;;;6142881;23;20505;-82
2023/05/21 07:57:20;;;;;;;13.03;12.03;;;21.90;99.90;;;;;;6147141;23;20433;-78
2023/05/21 07:59:47;;;;;;;12.03;11.13;;;22.00;99.90;;;;;;6129380;23;20510;-75
2023/05/21 08:02:15;;;;;;;11.80;10.90;;;22.10;99.90;;;;;;6137016;23;21164;-75
2023/05/21 08:04:43;;;;;;;11.37;10.47;;;22.30;99.90;;;;;;6131216;23;20449;-75
2023/05/21 08:07:11;;;;;;;11.67;10.87;;;22.30;99.90;;;;;;6127735;23;20920;-74
2023/05/21 08:09:38;;;;;;;11.30;10.40;;;22.40;99.90;;;;;;6131265;23;20444;-75
2023/05/21 08:12:07;;;;;;;10.33;9.63;;;22.50;99.90;;;;;;6131084;23;20484;-75
2023/05/21 08:14:34;;;;;;;11.17;10.37;;;22.60;99.90;;;;;;6136245;23;20495;-75
2023/05/21 08:17:02;;;;;;;10.93;9.93;;;22.90;99.90;;;;;;6130824;23;20523;-75
2023/05/21 08:19:29;;;;;;;10.90;10.10;;;23.00;99.90;;;;;;6135479;23;20941;-75
2023/05/21 08:21:56;;;;;;;11.00;10.20;;;22.80;99.90;;;;;;6131378;23;22763;-75
2023/05/21 08:24:25;;;;;;;11.50;10.50;;;22.80;99.90;;;;;;6140878;23;20515;-75
2023/05/21 08:26:52;;;;;;;10.80;10.10;;;22.70;99.90;;;;;;6143623;23;21217;-75
2023/05/21 08:29:21;;;;;;;12.13;11.33;;;22.60;99.90;;;;;;6138078;23;20483;-75
2023/05/21 08:31:48;;;;;;;10.67;9.87;;;22.70;99.90;;;;;;6137446;23;20449;-75
2023/05/21 08:34:17;;;;;;;11.30;10.47;;;22.80;99.90;;;;;;6144628;23;20973;-75
2023/05/21 08:36:45;;;;;;;10.87;10.03;;;22.80;99.90;;;;;;6143074;23;20451;-75
2023/05/21 08:39:12;;;;;;;11.00;10.00;;;22.90;99.90;;;;;;6136041;23;20436;-75
2023/05/21 08:41:43;;;;;;;10.70;9.83;;;23.20;99.90;;;;;;6140365;23;20855;-75
2023/05/21 08:44:12;;;;;;;10.73;9.93;;;23.40;99.90;;;;;;6126519;23;20433;-75
2023/05/21 08:46:43;;;;;;;11.80;11.00;;;23.70;99.90;;;;;;6143795;23;20428;-85
2023/05/21 08:49:12;;;;;;;11.50;10.70;;;24.00;99.90;;;;;;6150787;23;20495;-74
2023/05/21 08:51:40;;;;;;;10.23;9.53;;;24.40;99.90;;;;;;6147364;23;20460;-84
2023/05/21 08:54:07;;;;;;;10.03;9.33;;;24.50;99.90;;;;;;6145353;23;20432;-80
2023/05/21 08:56:35;;;;;;;9.60;8.90;;;24.80;99.90;;;;;;6145316;23;20464;-85
2023/05/21 08:59:03;;;;;;;10.63;9.73;;;24.80;99.90;;;;;;6149532;23;20472;-83
2023/05/21 09:01:32;;;;;;;10.07;9.37;;;24.60;99.90;;;;;;6136738;23;20816;-84
2023/05/21 09:04:02;;;;;;;9.80;9.10;;;24.30;99.90;;;;;;6146983;23;20417;-83
2023/05/21 09:06:32;;;;;;;10.30;9.50;;;24.40;99.90;;;;;;6130196;23;20441;-82
2023/05/21 09:09:04;;;;;;;9.50;8.83;;;24.50;99.90;;;;;;6144957;23;20540;-82
2023/05/21 09:11:31;;;;;;;9.40;8.70;;;24.80;99.90;;;;;;6160006;23;20457;-80
2023/05/21 09:14:01;;;;;;;10.03;9.33;;;25.10;99.90;;;;;;6150366;23;20830;-81
2023/05/21 09:16:42;;;;;;;10.10;9.40;;;25.40;99.90;;;;;;6143232;23;20538;-80
2023/05/21 09:19:12;;;;;;;11.00;10.07;;;25.40;99.90;;;;;;6144926;23;20437;-81
2023/05/21 09:21:39;;;;;;;10.33;9.60;;;25.50;99.90;;;;;;6136913;23;21052;-81
2023/05/21 09:24:09;;;;;;;10.20;9.40;;;25.70;99.90;;;;;;6142243;23;20428;-81
2023/05/21 09:26:36;;;;;;;10.13;9.33;;;25.80;99.90;;;;;;6136800;23;20532;-81
2023/05/21 09:29:03;;;;;;;11.40;10.60;;;26.00;99.90;;;;;;6139398;23;20464;-81
2023/05/21 09:31:31;;;;;;;9.70;9.00;;;26.30;99.90;;;;;;6133806;23;20489;-81
2023/05/21 09:33:59;;;;;;;10.80;9.90;;;26.20;99.90;;;;;;6134727;23;20441;-81
2023/05/21 09:36:29;;;;;;;10.43;9.53;;;26.30;99.90;;;;;;6132105;23;20457;-81
2023/05/21 09:38:58;;;;;;;9.93;9.23;;;26.30;99.90;;;;;;6130868;23;20465;-82
2023/05/21 09:41:32;;;;;;;9.93;9.33;;;26.30;99.90;;;;;;6137097;23;20507;-82
2023/05/21 09:44:00;;;;;;;9.70;9.00;;;26.30;99.90;;;;;;6114505;23;20433;-82
2023/05/21 09:46:27;;;;;;;9.83;9.10;;;26.40;99.90;;;;;;6126672;23;20445;-79
2023/05/21 09:48:54;;;;;;;10.17;9.37;;;26.60;99.90;;;;;;6143086;23;20556;-80
2023/05/21 09:51:21;;;;;;;8.50;7.90;;;26.70;99.90;;;;;;6142344;23;20540;-79
2023/05/21 09:53:51;;;;;;;9.00;8.40;;;26.90;99.90;;;;;;6144399;23;20479;-78
2023/05/21 09:56:22;;;;;;;8.87;8.17;;;27.20;99.90;;;;;;6140094;23;20472;-81
2023/05/21 09:58:53;;;;;;;8.57;8.07;;;27.30;99.90;;;;;;6136897;23;20437;-80
2023/05/21 10:01:21;;;;;;;10.33;9.30;;;27.60;99.90;;;;;;6140156;23;20467;-81
2023/05/21 10:03:53;;;;;;;8.37;7.80;;;27.40;99.90;;;;;;6138707;23;20451;-82
2023/05/21 10:06:21;;;;;;;8.73;8.03;;;27.60;99.90;;;;;;6132467;23;20443;-79
2023/05/21 10:08:53;;;;;;;10.80;9.93;;;27.80;99.90;;;;;;6140847;23;20524;-80
2023/05/21 10:11:23;;;;;;;9.40;8.70;;;28.00;99.10;;;;;;6133426;23;20480;-79
2023/05/21 10:13:55;;;;;;;9.63;8.93;;;27.90;99.30;;;;;;6137064;23;20519;-79
2023/05/21 10:16:23;;;;;;;8.60;7.90;;;28.20;98.60;;;;;;6141503;23;20452;-79
2023/05/21 10:18:52;;;;;;;9.23;8.53;;;28.50;98.40;;;;;;6137339;23;20445;-80
2023/05/21 10:21:21;;;;;;;8.87;8.07;;;28.50;98.30;;;;;;6146178;23;20453;-79
2023/05/21 10:23:51;;;;;;;8.57;7.97;;;28.70;97.30;;;;;;6133683;23;20936;-80
2023/05/21 10:26:20;;;;;;;7.87;7.30;;;29.00;96.60;;;;;;6139695;23;20440;-80
2023/05/21 10:28:48;;;;;;;7.50;7.00;;;29.40;96.20;;;;;;6144280;23;21019;-79
2023/05/21 10:31:15;;;;;;;7.67;7.17;;;29.90;94.10;;;;;;6139333;23;20483;-79
2023/05/21 10:33:43;;;;;;;8.00;7.50;;;30.00;94.40;;;;;;6141221;23;20489;-79
2023/05/21 10:36:11;;;;;;;6.70;6.20;;;30.30;92.90;;;;;;6138631;23;21049;-79
2023/05/21 10:38:39;;;;;;;7.43;7.03;;;30.70;92.50;;;;;;6138311;23;20476;-83
2023/05/21 10:41:08;;;;;;;8.17;7.57;;;31.10;91.40;;;;;;6134867;23;20539;-82
2023/05/21 10:43:44;;;;;;;7.60;7.10;;;31.20;90.00;;;;;;6142438;23;20989;-81
2023/05/21 10:46:39;;;;;;;8.23;7.63;;;31.10;89.40;;;;;;6141985;23;20500;-79
2023/05/21 10:49:51;;;;;;;7.70;7.10;;;30.70;89.80;;;;;;6137959;23;20500;-79
2023/05/21 10:52:32;;;;;;;7.90;7.40;;;30.50;91.10;;;;;;6082823;23;20975;-79
2023/05/21 10:55:15;;;;;;;6.73;6.33;;;30.20;91.20;;;;;;6130883;23;20464;-80
2023/05/21 10:58:25;;;;;;;7.37;6.87;;;30.30;91.10;;;;;;6144298;23;20504;-79
2023/05/21 11:00:54;;;;;;;7.77;7.20;;;30.50;90.30;;;;;;6138259;23;20510;-80
2023/05/21 11:03:22;;;;;;;7.50;6.90;;;30.80;90.00;;;;;;6143265;23;20467;-80
2023/05/21 11:05:54;;;;;;;7.47;6.97;;;30.70;89.20;;;;;;6147638;23;20444;-79
2023/05/21 11:08:22;;;;;;;7.43;6.93;;;30.80;90.40;;;;;;6149699;23;20508;-80
2023/05/21 11:10:54;;;;;;;6.50;6.10;;;30.60;88.70;;;;;;6144767;23;20461;-80
2023/05/21 11:13:22;;;;;;;7.93;7.43;;;30.60;87.00;;;;;;6143654;23;20440;-80
2023/05/21 11:16:06;;;;;;;7.70;7.20;;;30.40;88.10;;;;;;6149104;23;20471;-80
2023/05/21 11:19:02;;;;;;;7.40;6.90;;;30.20;88.70;;;;;;6164096;23;20439;-81
2023/05/21 11:21:30;;;;;;;8.13;6.93;;;29.80;84.80;;;;;;6135241;23;20842;-80
2023/05/21 11:24:01;;;;;;;7.63;7.13;;;29.80;87.90;;;;;;6139499;23;20468;-75
2023/05/21 11:26:30;;;;;;;7.80;7.30;;;29.70;86.10;;;;;;6139757;23;20421;-75
2023/05/21 11:29:08;;;;;;;7.90;7.20;;;29.30;86.80;;;;;;6145114;23;20476;-77
2023/05/21 11:31:39;;;;;;;7.07;6.67;;;29.30;87.40;;;;;;6135644;23;20510;-84
2023/05/21 11:34:11;;;;;;;7.13;6.63;;;29.60;88.30;;;;;;6142924;23;20973;-77
2023/05/21 11:36:39;;;;;;;7.77;7.17;;;29.80;86.30;;;;;;6134477;23;20557;-76
2023/05/21 11:39:11;;;;;;;7.80;7.20;;;29.80;85.30;;;;;;6114253;23;20437;-76
2023/05/21 11:41:52;;;;;;;7.13;6.73;;;29.50;85.10;;;;;;6119019;23;20553;-76
2023/05/21 11:44:37;;;;;;;7.17;6.67;;;29.20;87.20;;;;;;6120136;23;20439;-77
2023/05/21 11:47:05;;;;;;;7.17;6.67;;;29.40;88.10;;;;;;6111981;23;20443;-77
2023/05/21 11:49:33;;;;;;;7.53;7.03;;;29.90;87.20;;;;;;6131309;23;20851;-77
2023/05/21 11:52:00;;;;;;;8.30;7.60;;;30.30;86.30;;;;;;6128293;23;20468;-77
2023/05/21 11:54:28;;;;;;;15.97;12.40;;;30.60;84.60;;;;;;6133678;23;20432;-77
2023/05/21 11:56:55;;;;;;;11.10;10.30;;;30.60;84.40;;;;;;6143396;23;20456;-77
2023/05/21 11:59:24;;;;;;;8.47;7.87;;;30.30;83.80;;;;;;6145632;23;20540;-77
2023/05/21 12:01:50;;;;;;;7.13;6.63;;;30.10;85.20;;;;;;6140451;23;20528;-77
2023/05/21 12:04:18;;;;;;;6.77;6.27;;;29.80;83.20;;;;;;6131972;23;20460;-77
2023/05/21 12:06:47;;;;;;;6.93;6.43;;;29.10;84.60;;;;;;6127104;23;20504;-77
2023/05/21 12:09:14;;;;;;;7.30;6.73;;;29.10;86.80;;;;;;6132234;23;20479;-77
2023/05/21 12:11:41;;;;;;;7.23;6.77;;;29.10;87.10;;;;;;6145799;23;20957;-77
2023/05/21 12:14:09;;;;;;;6.90;6.50;;;29.10;87.10;;;;;;6150165;23;20463;-77
2023/05/21 12:16:39;;;;;;;7.40;6.70;;;29.30;86.60;;;;;;6149246;23;20469;-76
2023/05/21 12:19:07;;;;;;;7.70;7.20;;;29.30;85.70;;;;;;6148481;23;20810;-77
2023/05/21 12:21:35;;;;;;;7.60;7.10;;;29.40;87.00;;;;;;6148584;23;20437;-77
2023/05/21 12:24:02;;;;;;;8.07;7.40;;;29.30;85.90;;;;;;6148555;23;20421;-76
2023/05/21 12:26:32;;;;;;;8.40;7.70;;;28.60;87.20;;;;;;6148323;23;20437;-77
2023/05/21 12:28:59;;;;;;;7.80;7.20;;;28.50;88.20;;;;;;6147288;23;20435;-77
2023/05/21 12:31:26;;;;;;;8.60;7.97;;;28.50;88.80;;;;;;6148206;23;20463;-77
2023/05/21 12:33:55;;;;;;;8.43;7.83;;;28.80;87.90;;;;;;6149209;23;20638;-77
2023/05/21 12:36:22;;;;;;;7.17;6.60;;;28.90;90.20;;;;;;6146500;23;20882;-77
2023/05/21 12:38:50;;;;;;;7.60;7.00;;;28.90;88.80;;;;;;6148250;23;20778;-77
2023/05/21 12:41:18;;;;;;;8.27;7.60;;;29.00;88.40;;;;;;6136986;23;20442;-77